createdAt,value
2018-10-18T00:01:49.092Z,72.87
2018-10-18T00:05:13.780Z,72.64
2018-10-18T00:08:38.410Z,73.54
2018-10-18T00:12:03.106Z,73.02
2018-10-18T00:15:27.790Z,73.84
2018-10-18T00:18:52.512Z,73.74
2018-10-18T00:22:17.250Z,73.85
2018-10-18T00:25:41.919Z,73.25
2018-10-18T00:29:06.671Z,74.33
2018-10-18T00:32:31.375Z,73.90
2018-10-18T00:35:56.114Z,73.94
2018-10-18T00:39:20.757Z,73.77
2018-10-18T00:42:45.386Z,73.65
2018-10-18T00:46:10.078Z,73.99
2018-10-18T00:49:34.851Z,74.05
2018-10-18T00:52:59.549Z,74.06
2018-10-18T00:56:24.281Z,74.82
2018-10-18T00:59:48.966Z,74.22
2018-10-18T01:03:13.706Z,73.75
2018-10-18T01:06:38.412Z,74.30
2018-10-18T01:10:03.253Z,74.86
2018-10-18T01:13:28.009Z,75.42
2018-10-18T01:16:57.929Z,75.27
2018-10-18T01:20:22.620Z,74.78
2018-10-18T01:23:47.271Z,74.54
2018-10-18T01:27:12.006Z,74.94
2018-10-18T01:30:36.715Z,74.10
2018-10-18T01:34:01.385Z,74.09
2018-10-18T01:37:26.120Z,73.95
2018-10-18T01:40:50.864Z,73.89
2018-10-18T01:44:15.657Z,73.75
2018-10-18T01:47:40.309Z,74.11
2018-10-18T01:51:05.017Z,74.48
2018-10-18T01:54:29.708Z,74.97
2018-10-18T01:57:54.428Z,74.50
2018-10-18T02:01:19.303Z,74.39
2018-10-18T02:04:43.994Z,74.08
2018-10-18T02:08:08.750Z,73.52
2018-10-18T02:11:33.440Z,73.21
2018-10-18T02:14:58.102Z,73.72
2018-10-18T02:18:22.927Z,72.91
2018-10-18T02:21:47.698Z,72.84
2018-10-18T02:25:12.636Z,73.68
2018-10-18T02:28:37.256Z,74.05
2018-10-18T02:32:01.944Z,72.96
2018-10-18T02:35:26.754Z,72.67
2018-10-18T02:38:51.405Z,72.54
2018-10-18T02:42:16.196Z,72.92
2018-10-18T02:45:40.871Z,72.83
2018-10-18T02:49:05.678Z,72.92
2018-10-18T02:52:30.404Z,73.01
2018-10-18T02:55:55.103Z,73.27
2018-10-18T02:59:19.783Z,73.52
2018-10-18T03:02:44.460Z,73.04
2018-10-18T03:06:09.256Z,73.13
2018-10-18T03:09:33.888Z,72.64
2018-10-18T03:12:58.614Z,73.02
2018-10-18T03:16:23.354Z,73.34
2018-10-18T03:19:48.118Z,73.19
2018-10-18T03:23:12.838Z,72.24
2018-10-18T03:26:37.562Z,72.10
2018-10-18T03:30:02.256Z,72.18
2018-10-18T03:33:26.957Z,71.79
2018-10-18T03:36:51.620Z,71.10
2018-10-18T03:40:16.345Z,71.45
2018-10-18T03:43:41.053Z,70.75
2018-10-18T03:47:05.951Z,71.64
2018-10-18T03:50:30.609Z,71.67
2018-10-18T03:53:55.304Z,71.70
2018-10-18T03:57:19.994Z,71.60
2018-10-18T04:00:45.016Z,71.27
2018-10-18T04:04:09.760Z,72.06
2018-10-18T04:07:34.505Z,71.49
2018-10-18T04:10:59.267Z,71.44
2018-10-18T04:14:23.915Z,71.11
2018-10-18T04:17:48.628Z,71.75
2018-10-18T04:21:13.395Z,71.82
2018-10-18T04:24:38.062Z,71.94
2018-10-18T04:28:02.932Z,71.80
2018-10-18T04:31:27.648Z,71.39
2018-10-18T04:34:52.297Z,72.06
2018-10-18T04:38:17.029Z,71.50
2018-10-18T04:41:41.860Z,71.11
2018-10-18T04:45:08.526Z,71.40
2018-10-18T04:48:33.357Z,71.12
2018-10-18T04:51:58.004Z,71.15
2018-10-18T04:55:22.697Z,70.97
2018-10-18T04:58:47.411Z,71.93
2018-10-18T05:02:12.174Z,71.38
2018-10-18T05:05:57.249Z,70.92
2018-10-18T05:09:21.957Z,71.59
2018-10-18T05:12:46.734Z,71.97
2018-10-18T05:16:11.369Z,71.92
2018-10-18T05:19:36.056Z,70.81
2018-10-18T05:23:00.755Z,70.88
2018-10-18T05:26:25.436Z,70.39
2018-10-18T05:29:50.088Z,70.31
2018-10-18T05:33:14.787Z,69.34
2018-10-18T05:36:39.455Z,69.84
2018-10-18T05:40:04.367Z,70.05
2018-10-18T05:43:29.126Z,69.74
2018-10-18T05:46:53.854Z,70.68
2018-10-18T05:50:18.564Z,71.07
2018-10-18T05:53:43.394Z,72.50
2018-10-18T05:57:08.062Z,72.10
2018-10-18T06:00:32.716Z,72.13
2018-10-18T06:03:57.426Z,72.00
2018-10-18T06:07:22.106Z,72.38
2018-10-18T06:11:03.505Z,72.90
2018-10-18T06:14:28.511Z,73.18
2018-10-18T06:17:53.263Z,73.57
2018-10-18T06:21:17.947Z,73.40
2018-10-18T06:24:42.630Z,73.08
2018-10-18T06:28:07.326Z,73.01
2018-10-18T06:31:32.048Z,72.99
2018-10-18T06:34:56.790Z,72.36
2018-10-18T06:38:21.552Z,72.75
2018-10-18T06:41:46.252Z,71.53
2018-10-18T06:45:16.507Z,71.76
2018-10-18T06:48:41.833Z,71.47
2018-10-18T06:52:06.968Z,71.76
2018-10-18T06:55:31.610Z,71.74
2018-10-18T06:58:56.328Z,71.33
2018-10-18T07:02:21.070Z,70.61
2018-10-18T07:05:45.707Z,70.04
2018-10-18T07:09:11.560Z,69.85
2018-10-18T07:12:36.999Z,70.18
2018-10-18T07:16:01.672Z,69.23
2018-10-18T07:19:26.358Z,69.96
2018-10-18T07:22:51.027Z,68.62
2018-10-18T07:26:15.844Z,68.54
2018-10-18T07:29:40.542Z,67.82
2018-10-18T07:33:05.367Z,68.24
2018-10-18T07:36:30.058Z,69.04
2018-10-18T07:39:54.793Z,69.21
2018-10-18T07:43:19.499Z,68.57
2018-10-18T07:46:44.283Z,67.91
2018-10-18T07:50:09.232Z,67.64
2018-10-18T07:53:33.992Z,67.38
2018-10-18T07:56:58.629Z,67.09
2018-10-18T08:00:23.342Z,67.45
2018-10-18T08:03:48.133Z,67.15
2018-10-18T08:07:13.102Z,66.59
2018-10-18T08:10:37.601Z,65.30
2018-10-18T08:14:02.315Z,64.85
2018-10-18T08:17:27.082Z,64.81
2018-10-18T08:20:51.671Z,65.15
2018-10-18T08:24:16.333Z,65.39
2018-10-18T08:27:41.085Z,65.69
2018-10-18T08:31:05.852Z,65.06
2018-10-18T08:34:30.487Z,64.49
2018-10-18T08:37:55.325Z,63.19
2018-10-18T08:41:19.908Z,62.91
2018-10-18T08:44:44.580Z,62.92
2018-10-18T08:48:09.297Z,61.79
2018-10-18T08:51:33.954Z,61.23
2018-10-18T08:54:58.687Z,60.76
2018-10-18T08:58:23.364Z,59.54
2018-10-18T09:01:48.055Z,59.13
2018-10-18T09:05:12.859Z,57.88
2018-10-18T09:08:37.605Z,56.65
2018-10-18T09:12:02.332Z,56.19
2018-10-18T09:15:27.067Z,54.97
2018-10-18T09:18:51.844Z,55.20
2018-10-18T09:22:16.592Z,53.62
2018-10-18T09:25:41.275Z,47.36
2018-10-18T09:29:06.023Z,41.02
2018-10-18T09:32:31.053Z,39.19
2018-10-18T09:35:55.806Z,40.46
2018-10-18T09:39:20.525Z,42.23
2018-10-18T09:42:45.229Z,40.55
2018-10-18T09:46:09.974Z,40.28
2018-10-18T09:49:34.659Z,40.97
2018-10-18T09:52:59.440Z,37.45
2018-10-18T09:56:24.020Z,34.95
2018-10-18T09:59:48.754Z,31.30
2018-10-18T10:03:15.031Z,28.56
2018-10-18T10:06:39.750Z,30.58
2018-10-18T10:10:04.487Z,30.73
2018-10-18T10:13:29.421Z,30.00
2018-10-18T10:16:53.977Z,33.04
2018-10-18T10:20:18.748Z,37.05
2018-10-18T10:23:43.489Z,39.25
2018-10-18T10:27:08.335Z,42.25
2018-10-18T10:30:33.172Z,42.70
2018-10-18T10:33:57.866Z,44.25
2018-10-18T10:37:22.543Z,42.95
2018-10-18T10:40:47.263Z,40.00
2018-10-18T10:44:12.069Z,38.40
2018-10-18T10:47:36.776Z,34.37
2018-10-18T10:51:01.585Z,30.68
2018-10-18T10:54:26.317Z,28.01
2018-10-18T10:57:50.971Z,26.92
2018-10-18T11:01:19.093Z,28.34
2018-10-18T11:04:43.849Z,30.62
2018-10-18T11:08:09.409Z,33.92
2018-10-18T11:11:34.053Z,38.90
2018-10-18T11:14:58.820Z,39.76
2018-10-18T11:18:23.537Z,41.33
2018-10-18T11:21:48.400Z,44.65
2018-10-18T11:25:13.142Z,45.97
2018-10-18T11:28:37.875Z,43.85
2018-10-18T11:32:02.564Z,37.05
2018-10-18T11:35:27.311Z,32.16
2018-10-18T11:38:52.051Z,33.32
2018-10-18T11:42:16.748Z,32.63
2018-10-18T11:45:41.735Z,33.95
2018-10-18T11:49:06.527Z,35.18
2018-10-18T11:52:31.246Z,37.33
2018-10-18T11:55:56.019Z,40.08
2018-10-18T11:59:20.821Z,43.53
2018-10-18T12:02:45.719Z,45.24
2018-10-18T12:06:10.432Z,45.75
2018-10-18T12:09:35.121Z,46.78
2018-10-18T12:12:59.951Z,45.07
2018-10-18T12:16:24.657Z,45.74
2018-10-18T12:19:49.360Z,47.99
2018-10-18T12:23:14.218Z,47.53
2018-10-18T12:26:38.838Z,49.11
2018-10-18T12:30:04.167Z,49.17
2018-10-18T12:33:28.883Z,51.84
2018-10-18T12:36:54.467Z,50.30
2018-10-18T12:40:19.261Z,48.51
2018-10-18T12:43:43.870Z,43.67
2018-10-18T12:47:10.557Z,44.14
2018-10-18T12:50:35.230Z,45.18
2018-10-18T12:53:59.957Z,46.74
2018-10-18T12:57:24.722Z,47.39
2018-10-18T13:00:49.373Z,49.39
2018-10-18T13:04:14.069Z,49.83
2018-10-18T13:07:38.787Z,50.17
2018-10-18T13:11:03.477Z,51.26
2018-10-18T13:14:29.202Z,50.43
2018-10-18T13:17:53.953Z,52.28
2018-10-18T13:21:18.622Z,52.19
2018-10-18T13:24:43.361Z,51.74
2018-10-18T13:28:08.131Z,52.90
2018-10-18T13:31:32.795Z,53.35
2018-10-18T13:34:57.527Z,54.21
2018-10-18T13:38:22.211Z,54.11
2018-10-18T13:41:46.918Z,55.13
2018-10-18T13:45:11.638Z,56.13
2018-10-18T13:48:36.363Z,55.16
2018-10-18T13:52:01.124Z,56.24
2018-10-18T13:55:25.820Z,56.60
2018-10-18T13:58:50.515Z,55.64
2018-10-18T14:02:15.259Z,56.10
2018-10-18T14:05:39.930Z,55.99
2018-10-18T14:09:05.423Z,54.52
2018-10-18T14:12:30.820Z,54.37
2018-10-18T14:15:55.490Z,53.36
2018-10-18T14:19:20.191Z,52.42
2018-10-18T14:22:44.851Z,54.52
2018-10-18T14:26:09.605Z,55.62
2018-10-18T14:29:34.345Z,56.73
2018-10-18T14:32:58.973Z,56.22
2018-10-18T14:36:23.664Z,56.05
2018-10-18T14:39:48.407Z,54.88
2018-10-18T14:43:13.095Z,55.71
2018-10-18T14:46:37.788Z,56.15
2018-10-18T14:50:02.656Z,55.95
2018-10-18T14:53:27.326Z,56.49
2018-10-18T14:56:52.012Z,56.27
2018-10-18T15:00:16.685Z,56.75
2018-10-18T15:03:41.449Z,57.39
2018-10-18T15:07:06.612Z,58.69
2018-10-18T15:10:31.233Z,58.72
2018-10-18T15:13:55.937Z,60.26
2018-10-18T15:17:20.675Z,60.17
2018-10-18T15:20:45.377Z,60.26
2018-10-18T15:24:10.040Z,60.15
2018-10-18T15:27:34.859Z,61.17
2018-10-18T15:30:59.487Z,61.17
2018-10-18T15:34:24.187Z,60.74
2018-10-18T15:37:48.955Z,61.83
2018-10-18T15:41:13.734Z,60.23
2018-10-18T15:44:38.371Z,61.25
2018-10-18T15:48:03.093Z,62.04
2018-10-18T15:51:27.760Z,61.56
2018-10-18T15:54:52.501Z,61.31
2018-10-18T15:58:17.207Z,62.11
2018-10-18T16:01:41.972Z,61.48
2018-10-18T16:05:07.116Z,63.43
2018-10-18T16:08:31.895Z,64.00
2018-10-18T16:11:56.517Z,64.85
2018-10-18T16:15:21.251Z,67.13
2018-10-18T16:18:45.915Z,68.05
2018-10-18T16:22:10.598Z,68.84
2018-10-18T16:25:35.322Z,68.16
2018-10-18T16:29:00.378Z,69.31
2018-10-18T16:32:25.079Z,69.60
2018-10-18T16:35:49.786Z,69.46
2018-10-18T16:39:15.012Z,68.69
2018-10-18T16:42:39.660Z,70.14
2018-10-18T16:46:04.500Z,70.17
2018-10-18T16:49:29.158Z,70.43
2018-10-18T16:52:53.867Z,70.56
2018-10-18T16:56:18.702Z,70.10
2018-10-18T16:59:43.387Z,69.71
2018-10-18T17:03:08.058Z,69.94
2018-10-18T17:06:32.836Z,70.35
2018-10-18T17:09:57.602Z,71.44
2018-10-18T17:13:22.258Z,70.67
2018-10-18T17:16:46.933Z,70.21
2018-10-18T17:20:11.784Z,69.38
2018-10-18T17:23:36.530Z,69.44
2018-10-18T17:27:01.250Z,69.22
2018-10-18T17:30:25.950Z,70.00
2018-10-18T17:33:50.713Z,70.33
2018-10-18T17:37:15.446Z,69.09
2018-10-18T17:40:40.247Z,68.56
2018-10-18T17:44:05.591Z,68.57
2018-10-18T17:47:30.235Z,68.72
2018-10-18T17:50:55.025Z,67.98
2018-10-18T17:54:19.879Z,67.65
2018-10-18T17:57:44.566Z,67.65
2018-10-18T18:01:09.269Z,68.38
2018-10-18T18:04:34.047Z,67.58
2018-10-18T18:07:58.786Z,68.05
2018-10-18T18:11:23.510Z,67.90
2018-10-18T18:14:48.138Z,68.41
2018-10-18T18:18:12.844Z,67.01
2018-10-18T18:21:37.546Z,67.14
2018-10-18T18:25:02.292Z,67.18
2018-10-18T18:28:27.086Z,67.41
2018-10-18T18:31:51.796Z,67.25
2018-10-18T18:35:16.474Z,68.07
2018-10-18T18:38:41.207Z,67.16
2018-10-18T18:42:05.969Z,66.63
2018-10-18T18:45:35.837Z,66.62
2018-10-18T18:49:00.465Z,68.22
2018-10-18T18:52:25.148Z,68.11
2018-10-18T18:55:49.872Z,67.12
2018-10-18T18:59:14.561Z,66.03
2018-10-18T19:02:39.303Z,65.73
2018-10-18T19:06:03.997Z,64.60
2018-10-18T19:09:28.711Z,64.86
2018-10-18T19:12:53.399Z,63.81
2018-10-18T19:16:18.047Z,64.23
2018-10-18T19:19:42.788Z,64.39
2018-10-18T19:23:07.575Z,63.80
2018-10-18T19:26:32.321Z,63.02
2018-10-18T19:29:57.099Z,63.29
2018-10-18T19:33:21.763Z,63.56
2018-10-18T19:36:46.526Z,63.35
2018-10-18T19:40:11.579Z,63.82
2018-10-18T19:43:36.276Z,64.01
2018-10-18T19:47:00.995Z,64.50
2018-10-18T19:50:25.673Z,63.48
2018-10-18T19:53:50.427Z,62.95
2018-10-18T19:57:15.144Z,64.25
2018-10-18T20:00:39.961Z,64.79
2018-10-18T20:04:04.821Z,65.61
2018-10-18T20:07:29.527Z,65.00
2018-10-18T20:10:54.228Z,65.24
2018-10-18T20:14:19.058Z,65.16
2018-10-18T20:17:43.685Z,64.36
2018-10-18T20:21:08.787Z,64.62
2018-10-18T20:24:33.468Z,64.63
2018-10-18T20:27:58.111Z,63.96
2018-10-18T20:31:22.827Z,63.21
2018-10-18T20:34:47.462Z,63.48
2018-10-18T20:38:12.204Z,64.37
2018-10-18T20:41:36.978Z,64.12
2018-10-18T20:45:01.735Z,64.23
2018-10-18T20:48:26.434Z,64.11
2018-10-18T20:51:51.148Z,63.41
2018-10-18T20:55:15.863Z,64.06
2018-10-18T20:58:40.667Z,63.89
2018-10-18T21:02:05.742Z,62.40
2018-10-18T21:05:30.478Z,62.83
2018-10-18T21:08:55.225Z,61.69
2018-10-18T21:12:19.942Z,62.15
2018-10-18T21:15:44.619Z,62.00
2018-10-18T21:19:09.339Z,62.73
2018-10-18T21:22:34.059Z,62.27
2018-10-18T21:25:58.767Z,62.23
2018-10-18T21:29:23.469Z,62.21
2018-10-18T21:32:48.177Z,63.08
2018-10-18T21:36:12.919Z,62.58
2018-10-18T21:39:37.596Z,62.10
2018-10-18T21:43:02.344Z,62.69
2018-10-18T21:46:27.090Z,61.99
2018-10-18T21:49:51.795Z,63.09
2018-10-18T21:53:16.492Z,62.41
2018-10-18T21:56:41.272Z,62.44
2018-10-18T22:00:11.948Z,61.45
2018-10-18T22:03:36.642Z,61.75
2018-10-18T22:07:01.375Z,62.04
2018-10-18T22:10:26.103Z,63.11
2018-10-18T22:13:50.876Z,62.82
2018-10-18T22:17:15.667Z,63.05
2018-10-18T22:20:40.307Z,62.60
2018-10-18T22:24:05.138Z,63.22
2018-10-18T22:27:29.981Z,62.34
2018-10-18T22:30:54.685Z,62.33
2018-10-18T22:34:19.411Z,62.51
2018-10-18T22:37:44.101Z,62.48
2018-10-18T22:41:09.184Z,62.30
2018-10-18T22:44:33.862Z,62.69
2018-10-18T22:47:58.584Z,62.35
2018-10-18T22:51:23.373Z,61.83
2018-10-18T22:54:48.317Z,62.92
2018-10-18T22:58:13.280Z,62.96
2018-10-18T23:01:38.030Z,62.74
2018-10-18T23:05:02.749Z,63.15
2018-10-18T23:08:27.358Z,63.34
2018-10-18T23:11:52.064Z,62.86
2018-10-18T23:15:16.810Z,62.78
2018-10-18T23:18:41.516Z,63.74
2018-10-18T23:22:08.300Z,62.84
2018-10-18T23:25:33.046Z,63.06
2018-10-18T23:28:57.812Z,63.56
2018-10-18T23:32:22.651Z,63.46
2018-10-18T23:35:47.390Z,63.70
2018-10-18T23:39:12.217Z,63.87
2018-10-18T23:42:36.848Z,63.57
2018-10-18T23:46:01.584Z,63.54
2018-10-18T23:49:26.337Z,63.65
2018-10-18T23:52:51.098Z,63.74
2018-10-18T23:56:15.823Z,63.99
2018-10-18T23:59:40.651Z,64.34
